createdAt,value
2023-04-18T00:00:07.415Z,95334.00
2023-04-18T00:01:14.148Z,95330.00
2023-04-18T00:02:07.559Z,95328.00
2023-04-18T00:03:07.052Z,95330.00
2023-04-18T00:04:07.060Z,95328.00
2023-04-18T00:05:06.817Z,95326.00
2023-04-18T00:06:06.759Z,95326.00
2023-04-18T00:07:07.004Z,95328.00
2023-04-18T00:08:06.870Z,95328.00
2023-04-18T00:09:06.665Z,95330.00
2023-04-18T00:10:06.642Z,95328.00
2023-04-18T00:11:06.702Z,95330.00
2023-04-18T00:12:06.652Z,95330.00
2023-04-18T00:13:07.198Z,95324.00
2023-04-18T00:14:06.629Z,95324.00
2023-04-18T00:15:06.602Z,95324.00
2023-04-18T00:16:06.644Z,95322.00
2023-04-18T00:17:07.000Z,95322.00
2023-04-18T00:18:06.689Z,95320.00
2023-04-18T00:19:07.366Z,95318.00
2023-04-18T00:20:06.995Z,95320.00
2023-04-18T00:21:06.681Z,95314.00
2023-04-18T00:22:06.649Z,95318.00
2023-04-18T00:23:06.559Z,95313.00
2023-04-18T00:24:06.509Z,95314.00
2023-04-18T00:25:06.560Z,95314.00
2023-04-18T00:26:06.629Z,95316.00
2023-04-18T00:27:07.349Z,95314.00
2023-04-18T00:28:15.649Z,95314.00
2023-04-18T00:29:06.385Z,95313.00
2023-04-18T00:30:06.481Z,95314.00
2023-04-18T00:31:06.409Z,95314.00
2023-04-18T00:32:07.895Z,95316.00
2023-04-18T00:33:06.262Z,95314.00
2023-04-18T00:34:06.227Z,95314.00
2023-04-18T00:35:06.332Z,95316.00
2023-04-18T00:36:06.223Z,95322.00
2023-04-18T00:37:05.212Z,95320.00
2023-04-18T00:38:07.324Z,95320.00
2023-04-18T00:39:05.119Z,95322.00
2023-04-18T00:40:06.615Z,95320.00
2023-04-18T00:41:08.324Z,95318.00
2023-04-18T00:42:12.810Z,95322.00
2023-04-18T00:43:09.681Z,95318.00
2023-04-18T00:44:06.184Z,95320.00
2023-04-18T00:45:08.717Z,95320.00
2023-04-18T00:46:06.068Z,95320.00
2023-04-18T00:47:06.236Z,95316.00
2023-04-18T00:48:06.189Z,95320.00
2023-04-18T00:49:06.046Z,95318.00
2023-04-18T00:50:07.545Z,95320.00
2023-04-18T00:51:05.955Z,95318.00
2023-04-18T00:52:05.797Z,95314.00
2023-04-18T00:53:07.204Z,95318.00
2023-04-18T00:54:09.730Z,95318.00
2023-04-18T00:55:04.874Z,95318.00
2023-04-18T00:56:05.664Z,95316.00
2023-04-18T00:57:05.638Z,95320.00
2023-04-18T00:58:05.704Z,95322.00
2023-04-18T00:59:05.733Z,95320.00
2023-04-18T01:00:09.542Z,95320.00
2023-04-18T01:01:11.200Z,95318.00
2023-04-18T01:02:06.535Z,95318.00
2023-04-18T01:03:11.642Z,95322.00
2023-04-18T01:04:06.428Z,95320.00
2023-04-18T01:05:05.668Z,95320.00
2023-04-18T01:06:05.719Z,95322.00
2023-04-18T01:07:05.922Z,95324.00
2023-04-18T01:08:05.568Z,95322.00
2023-04-18T01:09:11.801Z,95322.00
2023-04-18T01:10:09.690Z,95320.00
2023-04-18T01:11:05.526Z,95318.00
2023-04-18T01:12:05.312Z,95318.00
2023-04-18T01:13:05.433Z,95318.00
2023-04-18T01:14:06.143Z,95318.00
2023-04-18T01:15:05.990Z,95318.00
2023-04-18T01:16:09.232Z,95318.00
2023-04-18T01:17:12.084Z,95318.00
2023-04-18T01:18:07.167Z,95313.00
2023-04-18T01:19:05.658Z,95313.00
2023-04-18T01:20:12.168Z,95313.00
2023-04-18T01:21:08.528Z,95309.00
2023-04-18T01:22:05.249Z,95307.00
2023-04-18T01:23:05.595Z,95307.00
2023-04-18T01:24:06.869Z,95307.00
2023-04-18T01:25:05.748Z,95305.00
2023-04-18T01:26:06.756Z,95303.00
2023-04-18T01:27:05.167Z,95299.00
2023-04-18T01:28:12.287Z,95301.00
2023-04-18T01:29:05.580Z,95297.00
2023-04-18T01:30:16.636Z,95297.00
2023-04-18T01:31:05.117Z,95295.00
2023-04-18T01:32:05.374Z,95295.00
2023-04-18T01:33:05.663Z,95297.00
2023-04-18T01:34:05.129Z,95299.00
2023-04-18T01:35:04.968Z,95299.00
2023-04-18T01:36:07.306Z,95295.00
2023-04-18T01:37:11.547Z,95295.00
2023-04-18T01:38:05.000Z,95295.00
2023-04-18T01:39:10.728Z,95295.00
2023-04-18T01:40:05.128Z,95295.00
2023-04-18T01:41:05.103Z,95295.00
2023-04-18T01:42:04.766Z,95293.00
2023-04-18T01:43:15.084Z,95293.00
2023-04-18T01:44:04.699Z,95291.00
2023-04-18T01:45:04.814Z,95293.00
2023-04-18T01:46:05.086Z,95293.00
2023-04-18T01:47:04.740Z,95291.00
2023-04-18T01:48:05.057Z,95293.00
2023-04-18T01:49:04.708Z,95291.00
2023-04-18T01:50:03.683Z,95291.00
2023-04-18T01:51:04.485Z,95291.00
2023-04-18T01:52:04.531Z,95289.00
2023-04-18T01:53:04.558Z,95289.00
2023-04-18T01:54:05.154Z,95287.00
2023-04-18T01:55:04.498Z,95291.00
2023-04-18T01:56:04.452Z,95291.00
2023-04-18T01:57:08.193Z,95289.00
2023-04-18T01:58:04.192Z,95291.00
2023-04-18T01:59:09.970Z,95289.00
2023-04-18T02:00:08.184Z,95291.00
2023-04-18T02:01:04.267Z,95291.00
2023-04-18T02:02:04.431Z,95293.00
2023-04-18T02:03:04.394Z,95293.00
2023-04-18T02:04:05.174Z,95295.00
2023-04-18T02:05:04.346Z,95293.00
2023-04-18T02:06:04.571Z,95295.00
2023-04-18T02:07:09.211Z,95297.00
2023-04-18T02:08:04.618Z,95297.00
2023-04-18T02:09:04.610Z,95295.00
2023-04-18T02:10:05.108Z,95291.00
2023-04-18T02:11:04.571Z,95293.00
2023-04-18T02:12:10.238Z,95293.00
2023-04-18T02:13:04.626Z,95295.00
2023-04-18T02:14:04.551Z,95291.00
2023-04-18T02:15:08.487Z,95291.00
2023-04-18T02:16:04.870Z,95291.00
2023-04-18T02:17:04.543Z,95291.00
2023-04-18T02:18:11.023Z,95291.00
2023-04-18T02:19:04.610Z,95291.00
2023-04-18T02:20:04.424Z,95289.00
2023-04-18T02:21:04.517Z,95289.00
2023-04-18T02:22:04.754Z,95289.00
2023-04-18T02:23:04.330Z,95293.00
2023-04-18T02:24:04.298Z,95291.00
2023-04-18T02:25:04.412Z,95295.00
2023-04-18T02:26:04.398Z,95293.00
2023-04-18T02:27:10.855Z,95297.00
2023-04-18T02:28:10.476Z,95299.00
2023-04-18T02:29:04.998Z,95301.00
2023-04-18T02:30:04.144Z,95305.00
2023-04-18T02:31:04.395Z,95301.00
2023-04-18T02:32:04.417Z,95301.00
2023-04-18T02:33:05.051Z,95301.00
2023-04-18T02:34:04.023Z,95301.00
2023-04-18T02:35:04.129Z,95301.00
2023-04-18T02:36:06.863Z,95301.00
2023-04-18T02:37:04.365Z,95301.00
2023-04-18T02:38:05.817Z,95301.00
2023-04-18T02:39:04.424Z,95299.00
2023-04-18T02:40:04.243Z,95299.00
2023-04-18T02:41:04.493Z,95299.00
2023-04-18T02:42:04.423Z,95299.00
2023-04-18T02:43:04.127Z,95301.00
2023-04-18T02:44:04.274Z,95301.00
2023-04-18T02:45:04.135Z,95303.00
2023-04-18T02:46:05.122Z,95303.00
2023-04-18T02:47:05.105Z,95305.00
2023-04-18T02:48:04.241Z,95307.00
2023-04-18T02:49:04.321Z,95307.00
2023-04-18T02:50:04.230Z,95305.00
2023-04-18T02:51:04.723Z,95305.00
2023-04-18T02:52:10.796Z,95303.00
2023-04-18T02:53:04.714Z,95305.00
2023-04-18T02:54:04.386Z,95303.00
2023-04-18T02:55:04.445Z,95307.00
2023-04-18T02:56:04.482Z,95305.00
2023-04-18T02:57:04.461Z,95303.00
2023-04-18T02:58:04.229Z,95305.00
2023-04-18T02:59:04.408Z,95303.00
2023-04-18T03:00:04.292Z,95303.00
2023-04-18T03:01:11.676Z,95301.00
2023-04-18T03:02:07.538Z,95303.00
2023-04-18T03:03:04.524Z,95303.00
2023-04-18T03:04:10.255Z,95301.00
2023-04-18T03:05:04.286Z,95303.00
2023-04-18T03:06:04.200Z,95303.00
2023-04-18T03:07:04.285Z,95301.00
2023-04-18T03:08:09.050Z,95301.00
2023-04-18T03:09:05.877Z,95301.00
2023-04-18T03:10:04.531Z,95303.00
2023-04-18T03:11:04.410Z,95303.00
2023-04-18T03:12:05.954Z,95301.00
2023-04-18T03:13:04.924Z,95299.00
2023-04-18T03:14:03.805Z,95299.00
2023-04-18T03:15:03.429Z,95299.00
2023-04-18T03:16:04.192Z,95297.00
2023-04-18T03:17:04.233Z,95297.00
2023-04-18T03:18:08.990Z,95293.00
2023-04-18T03:19:04.163Z,95295.00
2023-04-18T03:20:05.361Z,95293.00
2023-04-18T03:21:02.990Z,95293.00
2023-04-18T03:22:05.194Z,95291.00
2023-04-18T03:23:04.257Z,95289.00
2023-04-18T03:24:04.765Z,95293.00
2023-04-18T03:27:53.753Z,95293.00
2023-04-18T03:28:44.528Z,95293.00
2023-04-18T03:29:43.736Z,95293.00
2023-04-18T03:30:45.181Z,95291.00
2023-04-18T03:31:44.386Z,95293.00
2023-04-18T03:32:43.793Z,95289.00
2023-04-18T03:33:48.266Z,95291.00
2023-04-18T03:34:46.540Z,95289.00
2023-04-18T03:35:43.466Z,95291.00
2023-04-18T03:36:46.588Z,95289.00
2023-04-18T03:37:43.582Z,95293.00
2023-04-18T03:38:45.646Z,95289.00
2023-04-18T03:39:45.581Z,95287.00
2023-04-18T03:40:43.117Z,95287.00
2023-04-18T03:41:44.428Z,95289.00
2023-04-18T03:42:44.140Z,95287.00
2023-04-18T03:43:45.261Z,95283.00
2023-04-18T03:44:44.052Z,95281.00
2023-04-18T03:45:44.065Z,95283.00
2023-04-18T03:46:43.794Z,95281.00
2023-04-18T03:47:44.208Z,95279.00
2023-04-18T03:48:44.036Z,95283.00
2023-04-18T03:49:44.539Z,95279.00
2023-04-18T03:50:43.794Z,95281.00
2023-04-18T03:51:44.920Z,95285.00
2023-04-18T03:52:45.047Z,95285.00
2023-04-18T03:53:43.999Z,95285.00
2023-04-18T03:54:44.365Z,95285.00
2023-04-18T03:55:45.234Z,95291.00
2023-04-18T03:56:45.095Z,95287.00
2023-04-18T03:57:44.738Z,95287.00
2023-04-18T03:58:45.162Z,95289.00
2023-04-18T03:59:45.159Z,95291.00
2023-04-18T04:00:44.357Z,95291.00
2023-04-18T04:01:44.377Z,95291.00
2023-04-18T04:02:43.694Z,95293.00
2023-04-18T04:03:44.178Z,95293.00
2023-04-18T04:04:44.011Z,95291.00
2023-04-18T04:05:44.007Z,95291.00
2023-04-18T04:06:44.519Z,95293.00
2023-04-18T04:07:44.091Z,95295.00
2023-04-18T04:08:44.817Z,95295.00
2023-04-18T04:09:43.823Z,95295.00
2023-04-18T04:10:43.800Z,95293.00
2023-04-18T04:11:43.719Z,95293.00
2023-04-18T04:12:43.825Z,95297.00
2023-04-18T04:13:43.725Z,95295.00
2023-04-18T04:14:44.137Z,95297.00
2023-04-18T04:15:43.842Z,95295.00
2023-04-18T04:16:43.784Z,95297.00
2023-04-18T04:17:43.735Z,95297.00
2023-04-18T04:18:43.876Z,95293.00
2023-04-18T04:19:44.280Z,95297.00
2023-04-18T04:20:44.077Z,95299.00
2023-04-18T04:21:43.671Z,95295.00
2023-04-18T04:22:44.104Z,95299.00
2023-04-18T04:23:43.794Z,95295.00
2023-04-18T04:24:45.130Z,95297.00
2023-04-18T04:25:44.011Z,95297.00
2023-04-18T04:26:44.017Z,95297.00
2023-04-18T04:27:43.807Z,95297.00
2023-04-18T04:28:43.736Z,95299.00
2023-04-18T04:29:44.037Z,95299.00
2023-04-18T04:30:43.650Z,95299.00
2023-04-18T04:31:43.994Z,95299.00
2023-04-18T04:32:44.115Z,95299.00
2023-04-18T04:33:43.756Z,95301.00
2023-04-18T04:34:43.965Z,95301.00
2023-04-18T04:35:44.477Z,95301.00
2023-04-18T04:36:43.585Z,95301.00
2023-04-18T04:37:43.777Z,95297.00
2023-04-18T04:38:44.093Z,95299.00
2023-04-18T04:39:44.321Z,95297.00
2023-04-18T04:40:44.609Z,95299.00
2023-04-18T04:41:43.807Z,95299.00
2023-04-18T04:42:44.736Z,95301.00
2023-04-18T04:43:43.921Z,95297.00
2023-04-18T04:44:43.790Z,95299.00
2023-04-18T04:45:43.899Z,95295.00
2023-04-18T04:46:43.692Z,95297.00
2023-04-18T04:47:43.996Z,95301.00
2023-04-18T04:48:43.637Z,95303.00
2023-04-18T04:49:43.861Z,95297.00
2023-04-18T04:50:43.966Z,95299.00
2023-04-18T04:51:43.972Z,95299.00
2023-04-18T04:52:44.607Z,95301.00
2023-04-18T04:53:44.605Z,95299.00
2023-04-18T04:54:44.762Z,95299.00
2023-04-18T04:55:44.104Z,95301.00
2023-04-18T04:56:45.749Z,95301.00
2023-04-18T04:57:43.910Z,95301.00
2023-04-18T04:58:45.549Z,95303.00
2023-04-18T04:59:44.541Z,95301.00
2023-04-18T05:00:45.153Z,95303.00
2023-04-18T05:01:44.585Z,95301.00
2023-04-18T05:02:44.469Z,95299.00
2023-04-18T05:03:44.879Z,95305.00
2023-04-18T05:04:45.903Z,95307.00
2023-04-18T05:05:44.276Z,95307.00
2023-04-18T05:06:44.791Z,95305.00
2023-04-18T05:07:45.195Z,95309.00
2023-04-18T05:08:44.483Z,95307.00
2023-04-18T05:09:44.972Z,95307.00
2023-04-18T05:10:46.759Z,95311.00
2023-04-18T05:11:45.027Z,95316.00
2023-04-18T05:12:45.538Z,95313.00
2023-04-18T05:13:47.194Z,95314.00
2023-04-18T05:15:14.229Z,95316.00
2023-04-18T05:26:25.179Z,95326.00
2023-04-18T05:27:26.291Z,95326.00
2023-04-18T05:31:04.932Z,95326.00
2023-04-18T05:32:06.567Z,95328.00
2023-04-18T05:33:06.770Z,95326.00
2023-04-18T05:34:07.209Z,95326.00
2023-04-18T05:35:07.307Z,95324.00
2023-04-18T05:36:08.232Z,95322.00
2023-04-18T05:37:08.243Z,95320.00
2023-04-18T05:39:28.940Z,95326.00
2023-04-18T05:44:28.049Z,95328.00
2023-04-18T05:45:27.558Z,95326.00
2023-04-18T05:51:23.048Z,95332.00
2023-04-18T05:57:29.447Z,95338.00
2023-04-18T05:58:27.390Z,95342.00
2023-04-18T06:01:27.548Z,95342.00
2023-04-18T06:22:05.471Z,95360.00
2023-04-18T06:22:59.228Z,95358.00
2023-04-18T06:35:43.130Z,95363.00
2023-04-18T06:39:44.427Z,95358.00
2023-04-18T06:42:02.957Z,95356.00
2023-04-18T06:43:05.764Z,95354.00
2023-04-18T07:00:17.114Z,95358.00
2023-04-18T07:15:53.447Z,95354.00
2023-04-18T07:16:53.323Z,95354.00
2023-04-18T07:17:53.373Z,95354.00
2023-04-18T07:18:53.822Z,95352.00
2023-04-18T07:19:53.285Z,95350.00
2023-04-18T07:20:53.602Z,95350.00
2023-04-18T07:21:53.763Z,95350.00
2023-04-18T07:22:53.544Z,95348.00
2023-04-18T07:23:54.074Z,95350.00
2023-04-18T07:24:53.355Z,95350.00
2023-04-18T07:25:54.527Z,95350.00
2023-04-18T07:26:55.071Z,95350.00
2023-04-18T07:27:54.136Z,95348.00
2023-04-18T07:28:53.748Z,95352.00
2023-04-18T07:29:53.839Z,95348.00
2023-04-18T07:30:53.278Z,95350.00
2023-04-18T07:31:53.363Z,95352.00
2023-04-18T07:32:54.059Z,95352.00
2023-04-18T07:33:54.889Z,95350.00
2023-04-18T07:34:53.846Z,95352.00
2023-04-18T07:36:06.066Z,95352.00
2023-04-18T07:36:54.211Z,95352.00
2023-04-18T07:37:53.842Z,95350.00
2023-04-18T07:39:02.887Z,95352.00
2023-04-18T07:39:53.550Z,95350.00
2023-04-18T07:49:43.122Z,95352.00
2023-04-18T07:52:06.342Z,95348.00
2023-04-18T09:22:15.985Z,95338.00
2023-04-18T09:23:19.742Z,95334.00
2023-04-18T09:24:13.940Z,95336.00
2023-04-18T09:25:19.626Z,95338.00
2023-04-18T09:27:31.204Z,95332.00
2023-04-18T09:31:11.386Z,95324.00
2023-04-18T09:59:54.357Z,95324.00
2023-04-18T10:00:56.810Z,95309.00
2023-04-18T10:03:15.002Z,95314.00
2023-04-18T10:11:04.555Z,95311.00
2023-04-18T10:18:06.274Z,95314.00
2023-04-18T10:26:30.352Z,95301.00
2023-04-18T10:29:07.317Z,95299.00
2023-04-18T10:45:45.767Z,95291.00
2023-04-18T10:51:16.614Z,95293.00
2023-04-18T10:56:43.084Z,95287.00
2023-04-18T11:19:05.458Z,95266.00
2023-04-18T11:56:47.772Z,95271.00
2023-04-18T12:30:24.376Z,95264.00
2023-04-18T12:42:09.127Z,95271.00
2023-04-18T12:44:43.399Z,95258.00
2023-04-18T12:47:22.289Z,95264.00
2023-04-18T12:48:26.149Z,95266.00
2023-04-18T12:49:25.383Z,95260.00
2023-04-18T12:50:23.546Z,95256.00
2023-04-18T12:59:01.191Z,95258.00
2023-04-18T13:07:21.632Z,95244.00
2023-04-18T13:23:54.149Z,95240.00
2023-04-18T13:26:14.366Z,95242.00
2023-04-18T13:28:34.009Z,95238.00
2023-04-18T13:30:56.784Z,95240.00
2023-04-18T13:32:04.826Z,95234.00
2023-04-18T13:32:56.373Z,95230.00
2023-04-18T13:33:55.051Z,95230.00
2023-04-18T13:35:07.417Z,95238.00
2023-04-18T13:37:13.316Z,95240.00
2023-04-18T13:39:32.109Z,95236.00
2023-04-18T13:41:54.892Z,95234.00
2023-04-18T13:42:53.301Z,95238.00
2023-04-18T13:43:52.660Z,95230.00
2023-04-18T13:44:57.349Z,95238.00
2023-04-18T13:45:54.869Z,95234.00
2023-04-18T13:46:52.384Z,95236.00
2023-04-18T14:14:15.399Z,95240.00
2023-04-18T14:21:17.689Z,95244.00
2023-04-18T14:34:54.953Z,95244.00
2023-04-18T14:37:14.563Z,95248.00
2023-04-18T14:38:14.335Z,95238.00
2023-04-18T14:40:33.908Z,95248.00
2023-04-18T14:42:52.650Z,95246.00
2023-04-18T14:43:54.934Z,95240.00
2023-04-18T14:44:53.389Z,95244.00
2023-04-18T14:45:59.017Z,95254.00
2023-04-18T14:46:56.337Z,95244.00
2023-04-18T14:47:54.322Z,95244.00
2023-04-18T14:48:54.746Z,95246.00
2023-04-18T14:51:18.601Z,95248.00
2023-04-18T14:54:51.632Z,95260.00
2023-04-18T14:57:13.867Z,95248.00
2023-04-18T15:02:11.226Z,95258.00
2023-04-18T15:03:12.525Z,95262.00
2023-04-18T15:04:11.447Z,95248.00
2023-04-18T15:05:11.365Z,95262.00
2023-04-18T15:06:11.236Z,95258.00
2023-04-18T15:07:16.255Z,95256.00
2023-04-18T15:08:14.025Z,95258.00
2023-04-18T15:09:11.967Z,95248.00
2023-04-18T15:10:13.715Z,95264.00
2023-04-18T15:11:12.867Z,95271.00
2023-04-18T15:12:14.948Z,95266.00
2023-04-18T15:13:20.286Z,95289.00
2023-04-18T15:14:15.116Z,95264.00
2023-04-18T15:15:13.956Z,95283.00
2023-04-18T15:16:12.960Z,95267.00
2023-04-18T15:17:12.900Z,95271.00
2023-04-18T15:18:12.477Z,95271.00
2023-04-18T15:19:12.042Z,95271.00
2023-04-18T15:20:12.865Z,95264.00
2023-04-18T15:21:11.763Z,95269.00
2023-04-18T15:22:11.870Z,95267.00
2023-04-18T15:23:11.959Z,95269.00
2023-04-18T15:24:14.023Z,95269.00
2023-04-18T15:25:11.637Z,95271.00
2023-04-18T15:26:12.395Z,95269.00
2023-04-18T15:27:12.299Z,95277.00
2023-04-18T15:28:13.267Z,95283.00
2023-04-18T15:29:13.051Z,95277.00
2023-04-18T15:30:12.318Z,95283.00
2023-04-18T15:31:12.332Z,95285.00
2023-04-18T15:32:12.492Z,95287.00
2023-04-18T15:33:13.153Z,95275.00
2023-04-18T15:34:14.037Z,95277.00
2023-04-18T15:35:17.391Z,95277.00
2023-04-18T15:36:13.598Z,95279.00
2023-04-18T15:37:15.730Z,95271.00
2023-04-18T15:38:13.198Z,95287.00
2023-04-18T15:39:12.784Z,95277.00
2023-04-18T15:40:14.238Z,95287.00
2023-04-18T15:41:13.932Z,95283.00
2023-04-18T15:42:13.946Z,95297.00
2023-04-18T15:43:15.278Z,95279.00
2023-04-18T15:44:12.797Z,95283.00
2023-04-18T15:45:14.118Z,95279.00
2023-04-18T15:46:12.897Z,95283.00
2023-04-18T15:47:12.836Z,95283.00
2023-04-18T15:48:13.887Z,95277.00
2023-04-18T15:49:13.177Z,95277.00
2023-04-18T15:50:13.818Z,95289.00
2023-04-18T15:51:13.496Z,95279.00
2023-04-18T15:52:12.377Z,95283.00
2023-04-18T15:53:13.225Z,95277.00
2023-04-18T15:54:13.567Z,95291.00
2023-04-18T15:55:12.811Z,95285.00
2023-04-18T15:56:13.017Z,95293.00
2023-04-18T15:57:13.039Z,95299.00
2023-04-18T15:58:13.146Z,95291.00
2023-04-18T15:59:13.229Z,95297.00
2023-04-18T16:00:13.528Z,95291.00
2023-04-18T16:01:14.321Z,95289.00
2023-04-18T16:02:16.348Z,95291.00
2023-04-18T16:03:14.566Z,95301.00
2023-04-18T16:04:14.524Z,95293.00
2023-04-18T16:05:13.708Z,95295.00
2023-04-18T16:06:13.571Z,95297.00
2023-04-18T16:07:13.497Z,95305.00
2023-04-18T16:08:13.202Z,95305.00
2023-04-18T16:09:13.713Z,95301.00
2023-04-18T16:10:13.598Z,95307.00
2023-04-18T16:11:13.331Z,95301.00
2023-04-18T16:12:13.556Z,95303.00
2023-04-18T16:13:13.537Z,95297.00
2023-04-18T16:14:14.020Z,95309.00
2023-04-18T16:15:13.545Z,95314.00
2023-04-18T16:16:13.408Z,95303.00
2023-04-18T16:17:13.151Z,95303.00
2023-04-18T16:18:14.054Z,95305.00
2023-04-18T16:19:13.861Z,95295.00
2023-04-18T16:20:13.611Z,95309.00
2023-04-18T16:21:13.888Z,95324.00
2023-04-18T16:22:13.587Z,95313.00
2023-04-18T16:23:14.445Z,95318.00
2023-04-18T16:24:13.692Z,95316.00
2023-04-18T16:25:13.723Z,95311.00
2023-04-18T16:26:13.728Z,95307.00
2023-04-18T16:27:13.910Z,95318.00
2023-04-18T16:28:13.917Z,95311.00
2023-04-18T16:29:14.131Z,95320.00
2023-04-18T16:30:13.828Z,95328.00
2023-04-18T16:31:13.718Z,95322.00
2023-04-18T16:32:15.245Z,95316.00
2023-04-18T16:33:14.401Z,95322.00
2023-04-18T16:34:14.688Z,95322.00
2023-04-18T16:35:14.182Z,95328.00
2023-04-18T16:36:14.816Z,95320.00
2023-04-18T16:37:14.860Z,95316.00
2023-04-18T16:38:14.714Z,95322.00
2023-04-18T16:39:17.236Z,95318.00
2023-04-18T16:40:15.566Z,95318.00
2023-04-18T16:41:14.520Z,95318.00
2023-04-18T16:42:15.695Z,95328.00
2023-04-18T16:43:14.249Z,95318.00
2023-04-18T16:44:14.187Z,95322.00
2023-04-18T16:45:13.315Z,95324.00
2023-04-18T16:46:14.228Z,95322.00
2023-04-18T16:47:14.584Z,95324.00
2023-04-18T16:48:14.894Z,95336.00
2023-04-18T16:49:14.383Z,95332.00
2023-04-18T16:50:14.120Z,95330.00
2023-04-18T16:51:13.980Z,95326.00
2023-04-18T16:52:14.310Z,95330.00
2023-04-18T16:53:14.624Z,95334.00
2023-04-18T16:54:14.732Z,95332.00
2023-04-18T16:55:14.748Z,95332.00
2023-04-18T16:56:14.070Z,95330.00
2023-04-18T16:57:14.008Z,95330.00
2023-04-18T16:58:14.245Z,95332.00
2023-04-18T16:59:14.638Z,95334.00
2023-04-18T17:00:14.267Z,95332.00
2023-04-18T17:01:15.257Z,95340.00
2023-04-18T17:02:14.649Z,95340.00
2023-04-18T17:03:14.875Z,95336.00
2023-04-18T17:04:15.021Z,95340.00
2023-04-18T17:05:14.726Z,95346.00
2023-04-18T17:06:15.297Z,95334.00
2023-04-18T17:07:14.616Z,95340.00
2023-04-18T17:08:17.978Z,95340.00
2023-04-18T17:09:16.151Z,95340.00
2023-04-18T17:10:17.856Z,95344.00
2023-04-18T17:11:16.748Z,95348.00
2023-04-18T17:12:15.983Z,95348.00
2023-04-18T17:13:18.319Z,95350.00
2023-04-18T17:14:17.533Z,95340.00
2023-04-18T17:15:16.464Z,95352.00
2023-04-18T17:16:17.371Z,95348.00
2023-04-18T17:17:17.040Z,95350.00
2023-04-18T17:18:17.660Z,95356.00
2023-04-18T17:19:16.622Z,95346.00
2023-04-18T17:20:15.476Z,95348.00
2023-04-18T17:21:15.817Z,95354.00
2023-04-18T17:22:14.850Z,95346.00
2023-04-18T17:23:16.259Z,95348.00
2023-04-18T17:24:15.997Z,95358.00
2023-04-18T17:25:15.357Z,95350.00
2023-04-18T17:26:15.685Z,95361.00
2023-04-18T17:27:16.430Z,95361.00
2023-04-18T17:28:18.837Z,95363.00
2023-04-18T17:29:16.548Z,95358.00
2023-04-18T17:30:17.197Z,95356.00
2023-04-18T17:31:16.329Z,95361.00
2023-04-18T17:32:17.048Z,95361.00
2023-04-18T17:33:18.583Z,95363.00
2023-04-18T17:34:21.129Z,95361.00
2023-04-18T17:35:17.379Z,95352.00
2023-04-18T17:36:15.702Z,95358.00
2023-04-18T17:37:18.094Z,95360.00
2023-04-18T17:38:18.582Z,95361.00
2023-04-18T17:39:18.020Z,95360.00
2023-04-18T17:40:16.696Z,95365.00
2023-04-18T17:41:16.480Z,95365.00
2023-04-18T17:42:17.812Z,95367.00
2023-04-18T17:43:17.624Z,95369.00
2023-04-18T17:44:18.836Z,95375.00
2023-04-18T17:45:16.403Z,95371.00
2023-04-18T17:46:16.949Z,95371.00
2023-04-18T17:47:17.320Z,95369.00
2023-04-18T17:48:17.213Z,95379.00
2023-04-18T17:49:19.335Z,95377.00
2023-04-18T17:50:16.405Z,95381.00
2023-04-18T17:51:16.667Z,95375.00
2023-04-18T17:52:16.410Z,95377.00
2023-04-18T17:53:16.962Z,95383.00
2023-04-18T17:54:17.994Z,95379.00
2023-04-18T17:55:17.835Z,95377.00
2023-04-18T17:56:17.675Z,95389.00
2023-04-18T17:57:17.846Z,95387.00
2023-04-18T17:58:19.320Z,95385.00
2023-04-18T17:59:16.966Z,95383.00
2023-04-18T18:00:16.607Z,95385.00
2023-04-18T18:01:16.877Z,95391.00
2023-04-18T18:02:16.872Z,95395.00
2023-04-18T18:03:17.896Z,95389.00
2023-04-18T18:04:17.389Z,95387.00
2023-04-18T18:05:17.264Z,95393.00
2023-04-18T18:06:16.524Z,95393.00
2023-04-18T18:07:17.265Z,95387.00
2023-04-18T18:08:17.266Z,95391.00
2023-04-18T18:09:17.349Z,95395.00
2023-04-18T18:10:16.336Z,95397.00
2023-04-18T18:11:16.888Z,95401.00
2023-04-18T18:12:16.700Z,95391.00
2023-04-18T18:13:18.540Z,95395.00
2023-04-18T18:14:17.218Z,95395.00
2023-04-18T18:15:17.859Z,95395.00
2023-04-18T18:16:17.461Z,95399.00
2023-04-18T18:17:18.062Z,95399.00
2023-04-18T18:18:18.834Z,95397.00
2023-04-18T18:19:17.093Z,95399.00
2023-04-18T18:20:16.923Z,95407.00
2023-04-18T18:21:17.469Z,95401.00
2023-04-18T18:22:17.882Z,95403.00
2023-04-18T18:23:17.246Z,95397.00
2023-04-18T18:24:17.280Z,95405.00
2023-04-18T18:25:17.023Z,95405.00
2023-04-18T18:26:17.402Z,95416.00
2023-04-18T18:27:17.788Z,95401.00
2023-04-18T18:28:17.818Z,95407.00
2023-04-18T18:29:18.030Z,95414.00
2023-04-18T18:30:18.037Z,95414.00
2023-04-18T18:31:18.066Z,95414.00
2023-04-18T18:32:18.563Z,95416.00
2023-04-18T18:33:17.957Z,95414.00
2023-04-18T18:34:17.802Z,95420.00
2023-04-18T18:35:19.504Z,95418.00
2023-04-18T18:36:18.955Z,95422.00
2023-04-18T18:37:18.043Z,95420.00
2023-04-18T18:38:18.358Z,95420.00
2023-04-18T18:39:18.777Z,95422.00
2023-04-18T18:40:17.998Z,95432.00
2023-04-18T18:41:20.336Z,95430.00
2023-04-18T18:42:19.915Z,95426.00
2023-04-18T18:43:18.952Z,95430.00
2023-04-18T18:44:19.620Z,95430.00
2023-04-18T18:45:17.831Z,95432.00
2023-04-18T18:46:19.417Z,95434.00
2023-04-18T18:47:19.009Z,95436.00
2023-04-18T18:48:20.128Z,95432.00
2023-04-18T18:49:20.288Z,95436.00
2023-04-18T18:50:18.623Z,95434.00
2023-04-18T18:51:18.295Z,95434.00
2023-04-18T18:52:21.151Z,95434.00
2023-04-18T18:53:19.929Z,95440.00
2023-04-18T18:54:19.321Z,95444.00
2023-04-18T18:55:18.895Z,95444.00
2023-04-18T18:56:20.602Z,95444.00
2023-04-18T18:57:19.091Z,95446.00
2023-04-18T18:58:21.351Z,95450.00
2023-04-18T18:59:19.334Z,95446.00
2023-04-18T19:00:19.102Z,95446.00
2023-04-18T19:01:20.263Z,95452.00
2023-04-18T19:02:19.256Z,95450.00
2023-04-18T19:03:20.033Z,95454.00
2023-04-18T19:04:19.448Z,95452.00
2023-04-18T19:05:18.891Z,95450.00
2023-04-18T19:06:19.155Z,95450.00
2023-04-18T19:07:20.086Z,95450.00
2023-04-18T19:08:19.202Z,95456.00
2023-04-18T19:09:19.325Z,95452.00
2023-04-18T19:10:19.001Z,95452.00
2023-04-18T19:11:19.452Z,95456.00
2023-04-18T19:12:20.016Z,95456.00
2023-04-18T19:13:19.713Z,95452.00
2023-04-18T19:14:19.150Z,95460.00
2023-04-18T19:15:19.885Z,95454.00
2023-04-18T19:16:18.995Z,95456.00
2023-04-18T19:17:19.537Z,95460.00
2023-04-18T19:18:19.869Z,95458.00
2023-04-18T19:19:20.528Z,95458.00
2023-04-18T19:20:20.851Z,95458.00
2023-04-18T19:21:19.764Z,95458.00
2023-04-18T19:22:20.484Z,95461.00
2023-04-18T19:23:21.209Z,95460.00
2023-04-18T19:24:21.360Z,95465.00
2023-04-18T19:25:19.842Z,95463.00
2023-04-18T19:26:22.395Z,95463.00
2023-04-18T19:27:21.038Z,95461.00
2023-04-18T19:28:21.856Z,95461.00
2023-04-18T19:29:19.845Z,95465.00
2023-04-18T19:30:19.830Z,95467.00
2023-04-18T19:31:19.916Z,95465.00
2023-04-18T19:32:20.497Z,95467.00
2023-04-18T19:33:20.147Z,95460.00
2023-04-18T19:34:19.643Z,95467.00
2023-04-18T19:35:20.402Z,95463.00
2023-04-18T19:36:19.861Z,95473.00
2023-04-18T19:37:21.629Z,95471.00
2023-04-18T19:38:20.796Z,95467.00
2023-04-18T19:39:22.071Z,95473.00
2023-04-18T19:40:20.705Z,95479.00
2023-04-18T19:41:20.918Z,95465.00
2023-04-18T19:42:20.408Z,95473.00
2023-04-18T19:43:21.561Z,95475.00
2023-04-18T19:44:20.402Z,95477.00